Time;durP1;ratioP1;P1;durP2;ratioP2;P2;SDS_P1;SDS_P2;PMS_P1;PMS_P2;Temp;Humidity;BMP_temperature;BMP_pressure;BME280_temperature;BME280_humidity;BME280_pressure;Samples;Min_cycle;Max_cycle;Signal;HPM_P1;HPM_P2
2021/04/12 00:01:20;;;;;;;7.60;4.70;;;;;;;12.75;55.51;100548.34;102003;1133;78654;-67
2021/04/12 00:03:33;;;;;;;7.00;4.60;;;;;;;12.75;55.55;100542.92;102039;1133;77796;-64
2021/04/12 00:05:44;;;;;;;6.50;5.20;;;;;;;12.74;55.46;100537.72;102039;1133;77971;-65
2021/04/12 00:07:59;;;;;;;6.80;4.60;;;;;;;12.72;55.60;100535.19;102019;1133;79641;-65
2021/04/12 00:10:17;;;;;;;6.70;4.70;;;;;;;12.71;55.48;100533.53;102043;1133;78671;-61
2021/04/12 00:12:27;;;;;;;7.20;4.30;;;;;;;12.69;55.45;100540.20;102047;1133;78728;-60
2021/04/12 00:14:40;;;;;;;7.20;4.40;;;;;;;12.67;55.40;100534.95;102065;1133;79466;-62
2021/04/12 00:16:53;;;;;;;7.70;4.50;;;;;;;12.65;55.36;100533.48;102058;1133;78724;-65
2021/04/12 00:19:08;;;;;;;9.40;4.40;;;;;;;12.63;55.43;100533.70;102064;1133;78508;-66
2021/04/12 00:21:25;;;;;;;6.00;4.30;;;;;;;12.61;55.52;100533.03;101649;1136;78467;-65
2021/04/12 00:23:37;;;;;;;7.40;3.80;;;;;;;12.57;55.98;100529.06;101601;1136;77926;-65
2021/04/12 00:25:50;;;;;;;5.10;3.80;;;;;;;12.55;55.82;100524.88;102081;1133;77139;-62
2021/04/12 00:28:04;;;;;;;5.90;3.80;;;;;;;12.57;55.63;100530.93;102040;1133;77853;-60
2021/04/12 00:30:17;;;;;;;5.50;4.00;;;;;;;12.55;55.52;100528.44;102050;1133;78281;-65
2021/04/12 00:32:30;;;;;;;6.80;4.60;;;;;;;12.54;55.58;100525.91;102015;1133;78331;-65
2021/04/12 00:34:46;;;;;;;5.90;4.00;;;;;;;12.53;55.79;100521.52;102011;1133;79557;-61
2021/04/12 00:36:57;;;;;;;6.00;3.80;;;;;;;12.53;55.70;100518.80;102088;1133;77619;-60
2021/04/12 00:39:10;;;;;;;6.20;4.40;;;;;;;12.49;55.46;100518.38;102048;1133;77216;-62
2021/04/12 00:41:38;;;;;;;7.00;3.70;;;;;;;12.49;55.47;100520.25;102040;1133;78354;-66
2021/04/12 00:43:56;;;;;;;7.30;4.20;;;;;;;12.46;55.50;100517.94;102036;1133;78028;-63
2021/04/12 00:46:38;;;;;;;7.00;3.70;;;;;;;12.42;55.54;100512.91;102027;1133;76850;-61
2021/04/12 00:49:17;;;;;;;4.90;3.70;;;;;;;12.39;55.67;100512.46;102045;1133;77814;-62
2021/04/12 00:51:36;;;;;;;6.00;3.70;;;;;;;12.37;55.60;100507.25;102043;1133;77242;-63
2021/04/12 00:54:02;;;;;;;6.50;4.30;;;;;;;12.36;55.55;100502.86;102029;1133;78105;-65
2021/04/12 00:56:13;;;;;;;12.10;5.30;;;;;;;12.35;55.75;100501.20;102033;1133;78859;-63
2021/04/12 00:58:31;;;;;;;4.70;3.50;;;;;;;12.38;55.69;100503.52;102035;1133;77276;-61
2021/04/12 01:00:41;;;;;;;5.70;3.70;;;;;;;12.40;55.41;100500.60;102053;1133;79026;-64
2021/04/12 01:03:04;;;;;;;8.70;4.00;;;;;;;12.37;55.36;100498.28;102048;1133;78700;-64
2021/04/12 01:05:26;;;;;;;6.80;3.80;;;;;;;12.35;55.32;100503.91;102062;1133;77030;-64
2021/04/12 01:08:19;;;;;;;5.80;3.70;;;;;;;12.35;55.37;100508.48;102047;1133;78835;-65
2021/04/12 01:10:56;;;;;;;4.90;3.30;;;;;;;12.35;55.43;100503.91;101561;1136;77795;-62
2021/04/12 01:13:39;;;;;;;5.50;3.40;;;;;;;12.37;55.29;100503.70;101995;1133;78612;-62
2021/04/12 01:16:23;;;;;;;5.10;3.40;;;;;;;12.37;55.35;100499.13;101994;1133;78339;-62
2021/04/12 01:18:51;;;;;;;7.30;3.70;;;;;;;12.39;55.51;100497.05;102013;1133;79067;-63
2021/04/12 01:21:17;;;;;;;5.30;3.50;;;;;;;12.43;55.41;100508.33;102039;1133;78106;-62
2021/04/12 01:24:15;;;;;;;5.00;3.10;;;;;;;12.42;55.17;100502.07;102010;1133;79165;-62
2021/04/12 01:27:07;;;;;;;5.80;3.20;;;;;;;12.40;55.34;100504.16;101399;1136;78578;-67
2021/04/12 01:30:11;;;;;;;6.50;3.40;;;;;;;12.43;55.25;100505.63;101967;1133;76587;-68
2021/04/12 01:32:51;;;;;;;6.10;3.40;;;;;;;12.42;55.08;100495.81;102024;1133;78030;-61
2021/04/12 01:35:42;;;;;;;7.70;3.90;;;;;;;12.42;54.89;100496.66;102039;1133;77704;-64
2021/04/12 01:37:53;;;;;;;5.20;3.50;;;;;;;12.40;55.09;100497.89;101579;1136;78760;-61
2021/04/12 01:40:16;;;;;;;7.20;3.50;;;;;;;12.38;55.17;100497.27;101641;1136;77374;-66
2021/04/12 01:42:47;;;;;;;6.70;3.30;;;;;;;12.38;54.98;100494.55;102030;1133;78053;-65
2021/04/12 01:45:03;;;;;;;6.10;3.00;;;;;;;12.39;55.24;100497.05;101660;1136;79637;-59
2021/04/12 01:47:24;;;;;;;5.50;3.80;;;;;;;12.38;54.94;100491.84;102022;1133;77594;-61
2021/04/12 01:49:55;;;;;;;6.10;3.60;;;;;;;12.38;55.21;100494.55;101643;1136;77603;-60
2021/04/12 01:52:45;;;;;;;5.80;3.30;;;;;;;12.39;55.14;100493.50;102046;1133;78580;-64
2021/04/12 01:55:39;;;;;;;6.20;3.70;;;;;;;12.40;55.12;100492.47;102044;1133;78118;-62
2021/04/12 01:58:29;;;;;;;4.80;3.20;;;;;;;12.39;54.95;100493.50;101605;1136;77227;-62
2021/04/12 02:00:58;;;;;;;5.00;3.00;;;;;;;12.38;54.97;100492.69;101885;1133;79676;-63
2021/04/12 02:03:19;;;;;;;6.70;3.80;;;;;;;12.36;54.96;100497.44;101638;1136;77680;-64
2021/04/12 02:06:38;;;;;;;7.10;3.30;;;;;;;12.35;55.04;100490.37;102061;1133;77574;-65
2021/04/12 02:08:54;;;;;;;5.20;3.00;;;;;;;12.35;54.99;100484.95;101539;1136;78417;-64
2021/04/12 02:11:12;;;;;;;5.90;3.40;;;;;;;12.33;54.90;100478.88;101534;1136;79654;-62
2021/04/12 02:13:46;;;;;;;5.70;3.30;;;;;;;12.30;54.85;100484.72;101618;1134;77708;-62
2021/04/12 02:16:08;;;;;;;4.60;3.50;;;;;;;12.24;55.30;100477.38;101610;1136;78883;-63
2021/04/12 02:18:51;;;;;;;6.00;3.20;;;;;;;12.18;55.08;100480.03;102041;1133;77606;-62
2021/04/12 02:21:03;;;;;;;7.10;3.40;;;;;;;12.09;54.99;100473.08;102020;1133;78206;-59
2021/04/12 02:23:29;;;;;;;6.20;4.00;;;;;;;12.01;54.96;100476.78;102035;1133;77219;-61
2021/04/12 02:25:45;;;;;;;5.90;3.60;;;;;;;11.92;55.18;100477.94;101589;1136;78025;-61
2021/04/12 02:27:58;;;;;;;6.30;3.50;;;;;;;11.85;55.20;100482.48;102067;1133;77098;-63
2021/04/12 02:30:19;;;;;;;6.10;3.80;;;;;;;11.82;55.08;100483.71;101601;1136;77257;-61
2021/04/12 02:33:08;;;;;;;6.10;3.40;;;;;;;11.74;55.38;100475.73;102021;1133;78081;-60
2021/04/12 02:35:45;;;;;;;7.20;4.10;;;;;;;11.70;55.49;100484.45;101403;1136;78011;-62
2021/04/12 02:38:16;;;;;;;5.40;3.50;;;;;;;11.67;55.96;100479.39;102035;1133;78599;-65
2021/04/12 02:40:36;;;;;;;5.80;3.80;;;;;;;11.62;55.75;100471.02;101650;1136;77734;-60
2021/04/12 02:42:56;;;;;;;5.20;3.20;;;;;;;11.57;55.87;100479.70;102019;1133;78657;-60
2021/04/12 02:45:23;;;;;;;5.30;3.20;;;;;;;11.51;55.75;100474.24;101583;1136;78653;-61
2021/04/12 02:48:30;;;;;;;7.50;3.40;;;;;;;11.48;56.29;100475.44;101628;1136;79272;-61
2021/04/12 02:51:03;;;;;;;6.00;3.00;;;;;;;11.44;55.94;100482.28;101205;1140;78720;-62
2021/04/12 02:53:26;;;;;;;7.20;3.30;;;;;;;11.39;56.05;100482.03;101592;1133;77862;-63
2021/04/12 02:55:57;;;;;;;4.70;3.30;;;;;;;11.39;56.00;100476.62;101618;1136;78540;-67
2021/04/12 02:58:32;;;;;;;5.40;3.00;;;;;;;11.39;56.23;100475.77;102018;1133;78161;-66
2021/04/12 03:00:56;;;;;;;4.40;3.30;;;;;;;11.39;56.20;100478.48;101619;1136;78871;-71
2021/04/12 03:04:00;;;;;;;5.90;3.40;;;;;;;11.36;56.36;100476.16;102045;1133;78766;-68
2021/04/12 03:06:45;;;;;;;6.90;3.80;;;;;;;11.33;56.22;100487.35;101666;1136;78772;-67
2021/04/12 03:09:22;;;;;;;7.20;3.80;;;;;;;11.27;56.11;100478.14;101755;1133;78545;-67
2021/04/12 03:11:56;;;;;;;5.10;3.10;;;;;;;11.22;56.54;100476.02;101707;1136;77064;-60
2021/04/12 03:14:48;;;;;;;4.60;3.20;;;;;;;11.21;56.22;100477.04;102062;1133;77800;-62
2021/04/12 03:17:40;;;;;;;5.70;3.30;;;;;;;11.21;56.46;100487.86;101520;1136;78595;-60
2021/04/12 03:20:30;;;;;;;5.80;3.40;;;;;;;11.20;56.49;100483.50;101957;1133;79525;-65
2021/04/12 03:23:07;;;;;;;5.90;2.90;;;;;;;11.15;56.68;100488.61;102043;1133;79340;-64
2021/04/12 03:25:35;;;;;;;5.60;2.80;;;;;;;11.15;56.62;100490.50;102002;1133;78810;-60
2021/04/12 03:28:08;;;;;;;4.20;2.90;;;;;;;11.12;56.78;100486.29;102026;1133;77474;-60
2021/04/12 03:30:31;;;;;;;4.80;3.10;;;;;;;11.10;56.86;100485.65;102069;1133;77251;-60
2021/04/12 03:32:56;;;;;;;5.10;3.10;;;;;;;11.09;56.84;100489.41;102011;1133;78819;-61
2021/04/12 03:35:14;;;;;;;4.50;3.00;;;;;;;11.07;56.92;100483.33;102029;1133;78441;-61
2021/04/12 03:37:54;;;;;;;3.90;2.90;;;;;;;11.08;57.17;100485.02;102032;1133;77752;-62
2021/04/12 03:40:08;;;;;;;4.50;2.80;;;;;;;11.08;56.89;100482.30;102031;1133;78649;-65
2021/04/12 03:42:44;;;;;;;3.60;2.80;;;;;;;11.10;56.75;100482.95;102063;1133;77595;-65
2021/04/12 03:45:29;;;;;;;7.70;3.50;;;;;;;11.11;57.13;100483.79;101895;1133;79036;-65
2021/04/12 03:47:59;;;;;;;5.20;3.30;;;;;;;11.12;57.00;100480.88;102011;1133;79414;-65
2021/04/12 03:50:23;;;;;;;5.80;3.80;;;;;;;11.17;56.84;100480.33;102069;1133;77642;-64
2021/04/12 03:52:58;;;;;;;6.80;4.10;;;;;;;11.18;57.08;100477.42;101581;1136;77584;-67
2021/04/12 03:56:01;;;;;;;7.70;4.00;;;;;;;11.25;57.07;100481.05;102033;1133;77236;-66
2021/04/12 03:58:44;;;;;;;6.30;3.70;;;;;;;11.27;57.07;100478.14;101501;1136;78082;-66
2021/04/12 04:01:06;;;;;;;8.70;4.20;;;;;;;11.25;56.99;100475.64;101593;1134;78622;-67
2021/04/12 04:03:45;;;;;;;6.10;4.10;;;;;;;11.26;56.92;100476.48;102041;1133;78646;-66
2021/04/12 04:06:20;;;;;;;8.60;4.80;;;;;;;11.29;57.28;100475.27;101521;1136;77836;-66
2021/04/12 04:08:55;;;;;;;8.60;4.90;;;;;;;11.35;57.03;100482.58;101531;1136;78982;-66
2021/04/12 04:11:58;;;;;;;6.40;4.30;;;;;;;11.38;57.12;100482.20;102053;1133;78389;-61
2021/04/12 04:14:36;;;;;;;6.40;4.10;;;;;;;11.39;57.49;100486.59;102050;1133;77661;-61
2021/04/12 04:16:56;;;;;;;6.20;4.10;;;;;;;11.42;57.18;100483.51;102038;1133;77090;-65
2021/04/12 04:19:12;;;;;;;6.00;3.90;;;;;;;11.42;57.56;100483.51;102026;1133;78142;-65
2021/04/12 04:21:50;;;;;;;6.70;4.10;;;;;;;11.44;57.27;100487.69;102039;1133;78671;-66
2021/04/12 04:24:28;;;;;;;11.70;5.10;;;;;;;11.45;57.48;100496.65;102018;1133;77480;-66
2021/04/12 04:26:59;;;;;;;6.70;4.50;;;;;;;11.45;57.40;100492.08;101891;1134;78220;-66
2021/04/12 04:29:50;;;;;;;8.30;4.30;;;;;;;11.47;57.29;100500.83;101608;1136;78012;-62
2021/04/12 04:32:50;;;;;;;7.80;4.80;;;;;;;11.49;57.23;100497.92;102019;1133;78682;-61
2021/04/12 04:35:23;;;;;;;8.60;4.70;;;;;;;11.49;57.26;100498.77;101999;1133;77104;-66
2021/04/12 04:37:54;;;;;;;6.60;4.00;;;;;;;11.51;57.48;100488.58;101995;1133;78760;-65
2021/04/12 04:40:21;;;;;;;9.20;4.40;;;;;;;11.55;57.41;100498.00;102005;1133;77515;-66
2021/04/12 04:42:53;;;;;;;8.70;4.80;;;;;;;11.56;57.58;100493.44;102016;1133;77339;-66
2021/04/12 04:45:31;;;;;;;7.00;4.80;;;;;;;11.60;57.15;100494.70;102035;1133;79157;-65
2021/04/12 04:48:31;;;;;;;6.80;4.00;;;;;;;11.65;57.35;100493.09;102020;1133;78163;-66
2021/04/12 04:51:22;;;;;;;8.50;4.40;;;;;;;11.72;56.97;100493.20;102063;1133;76910;-61
2021/04/12 04:53:53;;;;;;;6.30;4.00;;;;;;;11.73;57.04;100495.70;101688;1134;78223;-59
2021/04/12 04:56:17;;;;;;;6.80;4.60;;;;;;;11.76;57.09;100489.89;101716;1133;78837;-60
2021/04/12 04:58:41;;;;;;;5.60;4.50;;;;;;;11.78;56.98;100493.23;102043;1133;77791;-61
2021/04/12 05:01:14;;;;;;;8.50;4.40;;;;;;;11.77;57.17;100496.16;102060;1133;78836;-61
2021/04/12 05:03:40;;;;;;;6.90;4.70;;;;;;;11.80;56.92;100496.61;102037;1133;77909;-62
2021/04/12 05:06:36;;;;;;;9.90;4.60;;;;;;;11.81;56.97;100494.75;102071;1133;77553;-67
2021/04/12 05:09:21;;;;;;;5.90;4.20;;;;;;;11.84;57.14;100495.17;102038;1133;78849;-66
2021/04/12 05:11:43;;;;;;;7.00;4.50;;;;;;;11.87;57.06;100501.25;102040;1133;78126;-61
2021/04/12 05:14:45;;;;;;;7.00;4.70;;;;;;;11.89;57.03;100502.73;102040;1133;77541;-61
2021/04/12 05:17:20;;;;;;;6.90;4.50;;;;;;;11.96;56.90;100508.18;102030;1133;78296;-65
2021/04/12 05:19:48;;;;;;;6.30;4.40;;;;;;;12.02;56.87;100497.41;101575;1136;78552;-66
2021/04/12 05:22:35;;;;;;;5.80;3.80;;;;;;;12.05;56.81;100498.89;102002;1133;79227;-61
2021/04/12 05:25:03;;;;;;;7.30;4.50;;;;;;;12.07;56.77;100500.37;101972;1133;79495;-66
2021/04/12 05:27:59;;;;;;;5.90;4.10;;;;;;;12.04;56.74;100495.34;102046;1134;78615;-66
2021/04/12 05:30:37;;;;;;;7.60;4.20;;;;;;;12.06;56.75;100498.68;101782;1133;78690;-61
2021/04/12 05:32:51;;;;;;;4.90;3.80;;;;;;;12.24;56.72;100498.20;101540;1136;77878;-60
2021/04/12 05:35:18;;;;;;;7.10;4.40;;;;;;;12.46;56.56;100499.81;101882;1133;77701;-66
2021/04/12 05:37:53;;;;;;;8.20;4.60;;;;;;;12.96;56.24;100496.72;102037;1133;78455;-67
2021/04/12 05:40:20;;;;;;;8.40;4.20;;;;;;;14.50;56.10;100491.09;101897;1133;78364;-67
2021/04/12 05:42:40;;;;;;;7.70;4.20;;;;;;;15.18;53.41;100486.89;102013;1133;78726;-67
2021/04/12 05:45:07;;;;;;;7.20;4.20;;;;;;;15.96;52.66;100492.08;102007;1133;77285;-62
2021/04/12 05:47:30;;;;;;;7.40;3.90;;;;;;;17.04;52.25;100484.03;102042;1134;78416;-64
2021/04/12 05:50:13;;;;;;;7.10;3.60;;;;;;;19.05;50.43;100481.97;102003;1133;79121;-66
2021/04/12 05:52:47;;;;;;;6.20;3.30;;;;;;;20.90;47.28;100479.13;102039;1133;78076;-65
2021/04/12 05:55:09;;;;;;;7.90;3.30;;;;;;;22.33;44.51;100483.95;102037;1133;78220;-62
2021/04/12 05:57:37;;;;;;;9.40;4.70;;;;;;;23.08;42.40;100475.30;102057;1134;77841;-63
2021/04/12 06:00:05;;;;;;;6.30;3.50;;;;;;;23.38;40.69;100483.71;102013;1133;77944;-63
2021/04/12 06:02:32;;;;;;;6.60;3.40;;;;;;;23.25;39.30;100477.84;102034;1133;78775;-61
2021/04/12 06:04:51;;;;;;;7.30;3.80;;;;;;;23.77;38.54;100474.97;102036;1133;78711;-62
2021/04/12 06:07:25;;;;;;;5.10;3.30;;;;;;;23.96;36.62;100473.32;101976;1133;78915;-61
2021/04/12 06:09:37;;;;;;;;;;;;;;;24.39;37.23;100480.25;102014;1133;77411;-61
2021/04/12 06:12:18;;;;;;;4.20;3.50;;;;;;;24.83;35.73;100477.70;102042;1133;77493;-69
2021/04/12 06:14:41;;;;;;;6.40;4.30;;;;;;;24.87;34.20;100479.61;102048;1133;77972;-68
2021/04/12 06:17:20;;;;;;;;;;;;;;;25.08;34.30;100472.89;102057;1133;79340;-62
2021/04/12 06:20:06;;;;;;;6.20;3.80;;;;;;;24.46;35.04;100472.50;102070;1133;78218;-62
2021/04/12 06:23:20;;;;;;;7.90;4.00;;;;;;;24.71;35.02;100472.45;102033;1133;79729;-67
2021/04/12 06:26:10;;;;;;;5.40;3.40;;;;;;;25.88;33.19;100469.95;101951;1133;79559;-66
2021/04/12 06:28:36;;;;;;;5.10;3.30;;;;;;;26.58;32.42;100469.36;101863;1110;76756;-61
2021/04/12 06:31:32;;;;;;;11.10;7.40;;;;;;;26.65;31.84;100472.59;101618;1136;77243;-62
2021/04/12 06:33:57;;;;;;;8.90;4.20;;;;;;;26.75;30.33;100463.36;101576;1136;78504;-68
2021/04/12 06:36:46;;;;;;;4.80;3.70;;;;;;;25.53;29.98;100477.39;101594;1136;77880;-65
2021/04/12 06:39:17;;;;;;;8.60;3.70;;;;;;;25.18;30.98;100472.86;101627;1136;78255;-67
2021/04/12 06:41:55;;;;;;;6.20;4.00;;;;;;;25.91;31.37;100469.38;101634;1136;77879;-67
2021/04/12 06:44:59;;;;;;;7.70;4.10;;;;;;;25.74;30.08;100472.54;101612;1137;79749;-66
2021/04/12 06:47:24;;;;;;;4.90;3.40;;;;;;;24.67;30.99;100471.34;101567;1136;78407;-65
2021/04/12 06:50:09;;;;;;;6.10;3.30;;;;;;;24.07;30.46;100478.58;101652;1136;77756;-67
2021/04/12 06:53:29;;;;;;;6.50;4.00;;;;;;;24.12;31.32;100476.97;101546;1136;79373;-63
2021/04/12 06:56:29;;;;;;;8.80;4.00;;;;;;;24.46;31.27;100481.62;101326;1136;78340;-62
2021/04/12 06:59:29;;;;;;;4.60;3.40;;;;;;;23.78;31.47;100476.63;101570;1136;79703;-62
2021/04/12 07:02:13;;;;;;;5.30;3.40;;;;;;;24.64;31.57;100478.25;101588;1136;79333;-61
2021/04/12 07:05:08;;;;;;;5.40;3.20;;;;;;;24.70;31.39;100481.00;101591;1136;78880;-62
2021/04/12 07:07:50;;;;;;;5.70;3.60;;;;;;;24.05;30.37;100482.72;101560;1136;79228;-67
2021/04/12 07:10:29;;;;;;;4.60;4.00;;;;;;;23.89;31.74;100479.13;101586;1136;78608;-67
2021/04/12 07:13:15;;;;;;;6.60;3.30;;;;;;;23.39;32.30;100479.87;101573;1136;78764;-61
2021/04/12 07:15:52;;;;;;;8.30;3.70;;;;;;;23.34;32.45;100476.23;101588;1136;77550;-61
2021/04/12 07:19:00;;;;;;;6.10;3.60;;;;;;;23.17;32.33;100472.86;101357;1136;79392;-62
2021/04/12 07:21:46;;;;;;;5.90;4.10;;;;;;;24.05;32.87;100472.51;101496;1136;79509;-65
2021/04/12 07:24:50;;;;;;;7.90;3.50;;;;;;;24.81;31.93;100472.44;101616;1136;78818;-61
2021/04/12 07:27:52;;;;;;;6.60;3.40;;;;;;;25.88;30.54;100465.24;101621;1136;79042;-67
2021/04/12 07:31:00;;;;;;;8.20;3.60;;;;;;;26.44;29.48;100467.56;101647;1136;78207;-68
2021/04/12 07:33:47;;;;;;;6.00;3.30;;;;;;;26.78;29.38;100473.89;101666;1136;78390;-62
2021/04/12 07:36:43;;;;;;;6.70;4.00;;;;;;;27.16;28.42;100475.64;101625;1136;79692;-62
2021/04/12 07:39:44;;;;;;;4.10;3.30;;;;;;;27.94;27.63;100461.19;101604;1136;80294;-63
2021/04/12 07:42:32;;;;;;;8.30;3.10;;;;;;;28.39;27.80;100466.00;101412;1136;77242;-68
2021/04/12 07:45:31;;;;;;;4.80;3.40;;;;;;;28.12;27.12;100453.99;101563;1136;79322;-68
2021/04/12 07:48:20;;;;;;;5.00;3.70;;;;;;;28.82;26.90;100458.25;101572;1136;78871;-68
2021/04/12 07:51:32;;;;;;;5.60;3.30;;;;;;;29.61;26.00;100459.61;101578;1136;77616;-68
2021/04/12 07:54:40;;;;;;;4.30;3.20;;;;;;;30.23;25.16;100470.95;101603;1136;79166;-62
2021/04/12 07:57:44;;;;;;;5.10;3.20;;;;;;;31.15;24.50;100461.77;101429;1136;79267;-67
2021/04/12 08:00:52;;;;;;;4.30;3.60;;;;;;;31.66;24.38;100461.04;101595;1136;79034;-67
2021/04/12 08:03:34;;;;;;;6.70;3.70;;;;;;;31.78;23.66;100455.63;101564;1136;77555;-64
2021/04/12 08:06:26;;;;;;;4.00;3.10;;;;;;;32.36;23.30;100455.09;101577;1137;77571;-63
2021/04/12 08:09:14;;;;;;;4.60;3.40;;;;;;;32.31;22.08;100458.05;101913;1112;77526;-64
2021/04/12 08:11:59;;;;;;;5.60;3.80;;;;;;;31.79;23.31;100458.08;101757;1112;77770;-64
2021/04/12 08:15:13;;;;;;;4.60;3.70;;;;;;;32.44;22.31;100451.45;101512;1136;77501;-64
2021/04/12 08:17:48;;;;;;;;;;;;;;;32.50;22.35;100456.52;101591;1136;79412;-63
2021/04/12 08:20:43;;;;;;;5.20;3.30;;;;;;;32.41;20.88;100458.53;101582;1135;78379;-63
2021/04/12 08:23:41;;;;;;;5.00;3.40;;;;;;;31.84;22.01;100449.53;101602;1136;79085;-63
2021/04/12 08:26:51;;;;;;;5.70;3.90;;;;;;;32.31;22.36;100449.66;101549;1136;77680;-66
2021/04/12 08:29:39;;;;;;;5.80;3.70;;;;;;;33.19;21.04;100445.06;101579;1136;78723;-65
2021/04/12 08:32:38;;;;;;;4.60;3.40;;;;;;;32.80;21.64;100449.02;101811;1111;78129;-67
2021/04/12 08:35:59;;;;;;;6.90;3.30;;;;;;;33.01;21.85;100454.70;101501;1136;78417;-67
2021/04/12 08:39:00;;;;;;;4.50;3.30;;;;;;;33.21;21.31;100445.56;101111;1140;78405;-67
2021/04/12 08:44:04;;;;;;;5.00;3.30;;;;;;;33.14;20.75;100445.26;101604;1121;78244;-63
2021/04/12 08:47:00;;;;;;;4.80;3.60;;;;;;;33.65;20.76;100441.31;101712;1112;77097;-69
2021/04/12 08:49:55;;;;;;;5.20;3.60;;;;;;;33.67;19.81;100438.98;101213;1139;78328;-63
2021/04/12 08:52:41;;;;;;;5.40;3.30;;;;;;;33.04;19.66;100448.42;101447;1125;78770;-64
2021/04/12 08:58:23;;;;;;;4.70;3.20;;;;;;;29.75;21.38;100449.25;101612;1122;77974;-67
2021/04/12 09:01:20;;;;;;;4.90;3.20;;;;;;;28.93;22.53;100453.30;101575;1136;76999;-67
2021/04/12 09:04:09;;;;;;;6.00;3.60;;;;;;;28.42;22.99;100447.89;101541;1136;77380;-63
2021/04/12 09:07:11;;;;;;;5.00;3.60;;;;;;;28.62;24.22;100444.73;101178;1140;78221;-64
2021/04/12 09:10:01;;;;;;;4.30;3.20;;;;;;;28.83;23.79;100447.95;101194;1140;77171;-62
2021/04/12 09:12:42;;;;;;;6.80;3.50;;;;;;;27.85;23.85;100449.97;101490;1137;77548;-68
2021/04/12 09:15:50;;;;;;;6.70;4.10;;;;;;;27.65;23.92;100441.12;101532;1136;79714;-69
2021/04/12 09:18:39;;;;;;;6.80;3.70;;;;;;;27.77;24.23;100441.50;101527;1136;78740;-63
2021/04/12 09:21:13;;;;;;;4.70;3.50;;;;;;;27.96;24.60;100442.30;101311;1137;77476;-62
2021/04/12 09:24:16;;;;;;;4.90;3.50;;;;;;;28.00;24.11;100440.54;101518;1136;78305;-63
2021/04/12 09:27:17;;;;;;;5.80;3.80;;;;;;;28.44;24.31;100442.84;101597;1121;77334;-66
2021/04/12 09:29:25;;;;;;;6.10;3.60;;;;;;;28.57;23.57;100442.86;101758;1112;78643;-66
2021/04/12 09:32:12;;;;;;;4.00;2.90;;;;;;;28.64;23.52;100446.11;101901;1112;77871;-66
2021/04/12 09:35:03;;;;;;;4.00;2.90;;;;;;;28.70;22.65;100427.37;101604;1136;78512;-65
2021/04/12 09:38:09;;;;;;;7.10;3.40;;;;;;;28.40;23.68;100439.05;101673;1113;79318;-65
2021/04/12 09:41:03;;;;;;;5.00;3.00;;;;;;;27.94;23.58;100434.25;101675;1111;78867;-69
2021/04/12 09:43:53;;;;;;;4.30;3.10;;;;;;;27.16;23.47;100436.81;101558;1136;78316;-66
2021/04/12 09:46:42;;;;;;;4.70;3.10;;;;;;;26.58;24.06;100440.81;101600;1136;77117;-73
2021/04/12 09:49:54;;;;;;;5.10;2.90;;;;;;;26.54;25.04;100435.02;101575;1136;78725;-69
2021/04/12 09:52:30;;;;;;;5.50;3.20;;;;;;;26.59;24.90;100428.63;101569;1136;79400;-73
2021/04/12 09:55:12;;;;;;;5.80;2.50;;;;;;;26.65;25.11;100435.73;101558;1136;78411;-64
2021/04/12 09:58:09;;;;;;;5.70;2.90;;;;;;;26.49;25.22;100431.48;101560;1136;79566;-65
2021/04/12 10:00:44;;;;;;;5.40;3.30;;;;;;;26.22;25.52;100435.64;101523;1136;78307;-68
2021/04/12 10:03:36;;;;;;;7.50;3.60;;;;;;;25.96;25.86;100434.17;101489;1136;77978;-70
2021/04/12 10:06:20;;;;;;;4.20;3.00;;;;;;;25.66;25.65;100429.71;101595;1136;78811;-63
2021/04/12 10:08:32;;;;;;;4.70;3.20;;;;;;;25.33;26.03;100426.85;101444;1136;78875;-62
2021/04/12 10:10:54;;;;;;;3.70;2.90;;;;;;;24.73;26.18;100430.70;101581;1136;77883;-69
2021/04/12 10:13:16;;;;;;;4.10;2.80;;;;;;;24.32;26.50;100425.30;101699;1113;77489;-62
2021/04/12 10:15:37;;;;;;;5.70;2.90;;;;;;;24.62;27.37;100432.67;101556;1136;77532;-66
2021/04/12 10:17:51;;;;;;;6.00;3.00;;;;;;;24.61;27.62;100431.05;101544;1137;79462;-69
2021/04/12 10:20:03;;;;;;;3.90;2.50;;;;;;;24.56;26.77;100426.34;101606;1136;78693;-70
2021/04/12 10:22:14;;;;;;;7.50;2.90;;;;;;;24.53;27.30;100423.33;101553;1136;78037;-71
2021/04/12 10:24:27;;;;;;;4.20;2.70;;;;;;;24.59;27.61;100434.06;101588;1136;78916;-64
2021/04/12 10:26:42;;;;;;;4.70;2.90;;;;;;;24.38;27.33;100439.92;101572;1136;77590;-62
2021/04/12 10:28:51;;;;;;;3.80;2.60;;;;;;;24.52;27.40;100436.31;101549;1136;79278;-68
2021/04/12 10:31:07;;;;;;;3.20;2.50;;;;;;;24.45;27.25;100429.40;101535;1136;78803;-70
2021/04/12 10:33:23;;;;;;;5.80;2.60;;;;;;;23.98;27.01;100441.58;101556;1136;77712;-64
2021/04/12 10:35:44;;;;;;;6.10;3.40;;;;;;;23.86;27.64;100438.29;101556;1136;79205;-65
2021/04/12 10:38:05;;;;;;;3.70;2.60;;;;;;;23.83;28.17;100427.80;101583;1136;78083;-66
2021/04/12 10:40:21;;;;;;;5.40;2.80;;;;;;;23.91;28.18;100431.93;101587;1137;79549;-65
2021/04/12 10:42:44;;;;;;;5.50;3.00;;;;;;;23.86;28.06;100432.77;101573;1136;77123;-67
2021/04/12 10:44:59;;;;;;;4.80;3.00;;;;;;;23.87;28.06;100425.33;101556;1136;77025;-67
2021/04/12 10:47:17;;;;;;;4.20;3.10;;;;;;;23.74;28.09;100425.84;101583;1136;77934;-68
2021/04/12 10:49:29;;;;;;;6.10;3.20;;;;;;;23.59;28.57;100434.95;101696;1113;79318;-67
2021/04/12 10:51:46;;;;;;;7.50;3.30;;;;;;;23.34;28.97;100432.13;101555;1137;78505;-67
2021/04/12 10:54:40;;;;;;;6.40;3.10;;;;;;;23.31;29.45;100429.91;101589;1136;77704;-65
2021/04/12 10:56:49;;;;;;;6.40;3.10;;;;;;;23.27;28.71;100434.29;101551;1136;77570;-63
2021/04/12 10:59:40;;;;;;;7.90;3.10;;;;;;;23.18;29.46;100419.41;101539;1136;78106;-64
2021/04/12 11:01:53;;;;;;;6.30;3.40;;;;;;;23.17;29.47;100426.84;101339;1136;78455;-63
2021/04/12 11:04:14;;;;;;;3.60;2.70;;;;;;;23.07;29.20;100418.55;101529;1137;78499;-67
2021/04/12 11:06:47;;;;;;;4.80;2.80;;;;;;;23.08;29.65;100417.43;101549;1136;78397;-67
2021/04/12 11:09:05;;;;;;;3.40;2.40;;;;;;;23.07;29.39;100425.98;101566;1137;78692;-66
2021/04/12 11:11:19;;;;;;;3.60;2.40;;;;;;;23.00;29.75;100423.47;101678;1112;77191;-67
2021/04/12 11:13:35;;;;;;;5.80;3.10;;;;;;;23.03;29.79;100422.09;101672;1112;78693;-65
2021/04/12 11:16:08;;;;;;;4.90;2.80;;;;;;;22.96;29.73;100422.37;101888;1112;78794;-64
2021/04/12 11:18:30;;;;;;;4.80;3.10;;;;;;;22.86;29.39;100419.55;101736;1112;78037;-65
2021/04/12 11:20:42;;;;;;;7.10;3.10;;;;;;;22.71;29.60;100431.35;101677;1111;77254;-67
2021/04/12 11:22:59;;;;;;;4.70;2.70;;;;;;;22.48;29.93;100431.73;101685;1111;79008;-66
2021/04/12 11:25:12;;;;;;;5.80;3.10;;;;;;;22.52;30.38;100438.38;101608;1136;77096;-66
2021/04/12 11:28:12;;;;;;;5.10;3.00;;;;;;;22.63;30.48;100428.24;101601;1136;77828;-62
2021/04/12 11:30:24;;;;;;;6.00;3.30;;;;;;;22.93;30.47;100427.58;101692;1112;77087;-63
2021/04/12 11:32:44;;;;;;;4.30;3.50;;;;;;;22.68;30.33;100439.31;101594;1136;77156;-62
2021/04/12 11:34:57;;;;;;;4.40;3.20;;;;;;;22.81;30.59;100420.37;101562;1136;79388;-66
2021/04/12 11:37:18;;;;;;;4.70;3.00;;;;;;;22.98;30.27;100430.35;101567;1136;77961;-67
2021/04/12 11:39:27;;;;;;;3.60;2.70;;;;;;;22.84;30.33;100422.59;101543;1137;79735;-62
2021/04/12 11:41:37;;;;;;;4.10;2.90;;;;;;;22.90;30.27;100427.03;101586;1136;78544;-64
2021/04/12 11:43:50;;;;;;;5.60;2.70;;;;;;;22.76;29.93;100423.11;101582;1136;79759;-64
2021/04/12 11:46:09;;;;;;;2.90;2.50;;;;;;;22.74;30.33;100422.52;101588;1136;78904;-69
2021/04/12 11:48:26;;;;;;;3.90;2.70;;;;;;;22.87;30.83;100416.55;101567;1136;76697;-66
2021/04/12 11:50:38;;;;;;;4.70;3.20;;;;;;;22.96;30.46;100416.86;101543;1136;79053;-67
2021/04/12 11:53:01;;;;;;;5.50;3.10;;;;;;;22.91;30.68;100414.05;101578;1137;78502;-68
2021/04/12 11:55:25;;;;;;;4.40;2.70;;;;;;;22.87;30.34;100419.30;101528;1137;78591;-68
2021/04/12 11:57:42;;;;;;;;;;;;;;;22.94;30.32;100423.73;101573;1136;79174;-65